Meadows Of Dan, VA (24120)

10:27 AM EDT on March 28, 2015 (GMT -0400)
Country Road Realty | | Change Station
CLOSE
Current Station
Personal Weather Station
Location: Meadows Of Dan, VA
Elevation: 2910 ft
Nearby Weather Stations

Elev 2910 ft 36.73 °N, 80.44 °W | Updated 7 minutes ago

Mostly Cloudy
Mostly Cloudy
21.5 °F
Feels Like 10 °F
N
10.5
Wind Variable Wind from NNW
Gusts 23.0 mph

Today
High -- | Low -- °F
--% Chance of Precip.
Yesterday
High -- | Low -- °F
Precip. -- in
7:13 AM 7:40 PM
Waxing Gibbous, 62% visible
Pressure 30.07 in
Visibility -9999.0 miles
Clouds Scattered Clouds 5000 ft
Windchill 10 °F
Dew Point 7 °F
Humidity 53%
Rainfall 0.00 in
Snow Depth Not available.
UV 3 out of 12
Pollen 8.20 out of 12
Air Quality Not available.
Flu Activity Not available.
METAR KMWK 281415Z AUTO 33005G18KT SCT050 01/M12 A3007 RMK AO2 T00061123 PWINO

More Conditions Fewer Conditions

Pressure 30.07 in
Visibility -9999.0 miles
Clouds Scattered Clouds 5000 ft
Windchill 10 °F
Dew Point 7 °F
Humidity 53%
Rainfall 0.00 in
Snow Depth Not available.
UV 3 out of 12
Pollen 8.20 out of 12
Air Quality Not available.
Flu Activity Not available.
METAR KMWK 281415Z AUTO 33005G18KT SCT050 01/M12 A3007 RMK AO2 T00061123 PWINO

More Conditions Fewer Conditions

10-Day Weather Forecast

Almanac

Astronomy

Mar. 28, 2015 Rise Set
Actual Time
Civil Twilight
Nautical Twilight
Astronomical Twilight
Moon
Length of Visible Light
Length of Day
Tomorrow will be .
, % of the Moon is Illuminated

Today's Extremes

State Highs State Lows

Community

WunderPhotos

Upload Photos

1,808,984 photos uploaded!

WunderBlogs® & News

Nearby

Air Quality

  Air Quality AQ Index Pollutant
Not available.

Snow Depth

Station Depth Elevation

Earthquake Activity

City Distance Mag. Time & Date
Minimum magnitude displayed is 2.5.

Coastal Water Temperatures

Place Temperature

Stations

Nearby Weather Stations

Station Location Temp. Windchill Dew Point Humidity Wind Precip. Elev Updated Type